createdAt,value
2023-07-01T04:02:10.949Z,15.47
2023-07-01T04:06:13.595Z,15.57
2023-07-01T04:10:17.543Z,15.71
2023-07-01T04:14:20.134Z,15.65
2023-07-01T04:18:25.019Z,15.73
2023-07-01T04:22:27.561Z,15.77
2023-07-01T04:26:30.115Z,15.80
2023-07-01T04:30:32.716Z,15.99
2023-07-01T04:34:37.562Z,16.24
2023-07-01T04:38:40.099Z,16.26
2023-07-01T04:42:51.089Z,16.51
2023-07-01T04:46:53.657Z,16.64
2023-07-01T04:50:57.722Z,16.89
2023-07-01T04:55:00.313Z,17.10
2023-07-01T04:59:02.898Z,17.27
2023-07-01T05:03:05.786Z,17.56
2023-07-01T05:07:09.827Z,17.75
2023-07-01T05:11:12.771Z,17.67
2023-07-01T05:15:15.303Z,17.91
2023-07-01T05:19:17.950Z,18.02
2023-07-01T05:23:21.954Z,18.06
2023-07-01T05:27:24.545Z,17.96
2023-07-01T05:31:27.109Z,18.00
2023-07-01T05:35:29.696Z,18.23
2023-07-01T05:39:33.604Z,18.40
2023-07-01T05:43:36.297Z,18.67
2023-07-01T05:47:38.992Z,19.01
2023-07-01T05:51:41.631Z,19.35
2023-07-01T05:55:45.518Z,19.87
2023-07-01T05:59:48.085Z,20.31
2023-07-01T06:03:50.670Z,20.82
2023-07-01T06:07:53.249Z,20.83
2023-07-01T06:11:57.239Z,20.82
2023-07-01T06:15:59.824Z,20.90
2023-07-01T06:20:04.929Z,21.02
2023-07-01T06:24:09.120Z,21.34
2023-07-01T06:28:13.099Z,21.68
2023-07-01T06:32:15.775Z,21.60
2023-07-01T06:36:19.357Z,21.65
2023-07-01T06:40:21.987Z,21.58
2023-07-01T06:44:25.924Z,21.93
2023-07-01T06:48:28.558Z,22.20
2023-07-01T06:52:32.159Z,22.15
2023-07-01T06:56:34.736Z,22.10
2023-07-01T07:00:38.602Z,22.18
2023-07-01T07:04:41.173Z,22.39
2023-07-01T07:08:44.041Z,22.55
2023-07-01T07:12:46.597Z,22.77
2023-07-01T07:16:50.526Z,23.11
2023-07-01T07:20:53.070Z,22.94
2023-07-01T07:24:55.605Z,22.91
2023-07-01T07:28:58.117Z,23.34
2023-07-01T07:33:02.013Z,23.81
2023-07-01T07:37:05.569Z,24.18
2023-07-01T07:41:08.134Z,24.48
2023-07-01T07:45:11.594Z,24.22
2023-07-01T07:49:15.505Z,24.43
2023-07-01T07:53:18.056Z,24.29
2023-07-01T07:57:20.703Z,24.45
2023-07-01T08:01:23.260Z,24.35
2023-07-01T08:05:29.106Z,24.52
2023-07-01T08:09:32.158Z,24.80
2023-07-01T08:13:34.700Z,25.10
2023-07-01T08:17:37.383Z,24.66
2023-07-01T08:21:41.308Z,24.62
2023-07-01T08:25:44.931Z,24.57
2023-07-01T08:29:47.457Z,24.40
2023-07-01T08:33:49.998Z,24.57
2023-07-01T08:37:53.956Z,24.34
2023-07-01T08:42:01.239Z,24.56
2023-07-01T08:46:05.435Z,24.67
2023-07-01T08:50:09.837Z,24.78
2023-07-01T08:54:15.626Z,25.33
2023-07-01T08:58:18.187Z,25.65
2023-07-01T09:02:24.315Z,25.72
2023-07-01T09:06:26.934Z,25.56
2023-07-01T09:10:30.865Z,25.74
2023-07-01T09:15:00.712Z,25.81
2023-07-01T09:19:07.634Z,26.12
2023-07-01T09:23:10.225Z,25.98
2023-07-01T09:27:14.140Z,26.41
2023-07-01T09:31:17.918Z,26.41
2023-07-01T09:35:20.569Z,26.76
2023-07-01T09:39:33.861Z,26.83
2023-07-01T09:43:37.725Z,27.51
2023-07-01T09:47:40.341Z,27.56
2023-07-01T09:51:51.309Z,27.24
2023-07-01T09:55:53.893Z,26.83
2023-07-01T09:59:58.141Z,26.64
2023-07-01T10:04:00.950Z,27.29
2023-07-01T10:08:03.768Z,27.73
2023-07-01T10:12:07.849Z,26.97
2023-07-01T10:16:12.083Z,27.02
2023-07-01T10:20:28.945Z,26.78
2023-07-01T10:24:41.296Z,26.89
2023-07-01T10:28:43.947Z,26.89
2023-07-01T10:32:47.839Z,26.31
2023-07-01T10:37:14.880Z,25.79
2023-07-01T10:41:53.583Z,25.89
2023-07-01T10:46:13.380Z,25.92
2023-07-01T10:50:18.560Z,25.96
2023-07-01T10:54:31.044Z,25.86
2023-07-01T10:58:33.640Z,25.82
2023-07-01T11:02:41.225Z,26.03
2023-07-01T11:06:49.921Z,25.57
2023-07-01T11:10:53.441Z,25.49
2023-07-01T11:14:56.438Z,25.45
2023-07-01T11:19:01.208Z,25.39
2023-07-01T11:23:05.317Z,25.56
2023-07-01T11:27:09.520Z,25.72
2023-07-01T11:31:13.546Z,26.26
2023-07-01T11:35:16.264Z,26.01
2023-07-01T11:39:20.868Z,26.15
2023-07-01T11:43:23.892Z,26.16
2023-07-01T11:47:26.503Z,25.87
2023-07-01T11:51:38.337Z,25.49
2023-07-01T11:55:42.255Z,25.20
2023-07-01T11:59:46.884Z,24.76
2023-07-01T12:03:49.505Z,24.64
2023-07-01T12:07:56.157Z,24.26
2023-07-01T12:12:00.281Z,23.88
2023-07-01T12:16:02.884Z,24.19
2023-07-01T12:20:09.697Z,24.32
2023-07-01T12:24:20.400Z,24.03
2023-07-01T12:28:24.248Z,24.09
2023-07-01T12:32:27.245Z,24.18
2023-07-01T12:36:30.313Z,24.03
2023-07-01T12:40:32.905Z,23.82
2023-07-01T12:44:36.777Z,23.77
2023-07-01T12:48:39.308Z,23.75
2023-07-01T12:52:42.002Z,24.11
2023-07-01T12:56:44.550Z,24.13
2023-07-01T13:01:05.456Z,23.88
2023-07-01T13:05:12.003Z,23.52
2023-07-01T13:09:14.848Z,22.81
2023-07-01T13:13:17.391Z,23.02
2023-07-01T13:17:34.693Z,23.10
2023-07-01T13:21:40.238Z,23.22
2023-07-01T13:25:42.946Z,23.00
2023-07-01T13:29:45.460Z,23.04
2023-07-01T13:33:50.091Z,23.03
2023-07-01T13:38:02.973Z,22.74
2023-07-01T13:42:05.835Z,22.59
2023-07-01T13:46:08.428Z,22.76
2023-07-01T13:50:19.598Z,22.88
2023-07-01T13:54:24.640Z,23.02
2023-07-01T13:58:27.975Z,23.09
2023-07-01T14:02:30.991Z,23.00
2023-07-01T14:06:40.135Z,22.82
2023-07-01T14:10:43.552Z,22.84
2023-07-01T14:14:48.138Z,22.76
2023-07-01T14:18:51.871Z,22.63
2023-07-01T14:23:00.421Z,22.41
2023-07-01T14:27:04.011Z,22.41
2023-07-01T14:31:09.447Z,22.26
2023-07-01T14:35:12.177Z,22.39
2023-07-01T14:39:25.678Z,22.50
2023-07-01T14:43:28.439Z,22.60
2023-07-01T14:47:31.037Z,22.57
2023-07-01T14:51:33.754Z,22.54
2023-07-01T14:55:37.720Z,22.51
2023-07-01T14:59:40.285Z,22.38
2023-07-01T15:03:44.020Z,22.39
2023-07-01T15:07:47.149Z,22.40
2023-07-01T15:11:50.928Z,22.57
2023-07-01T15:15:53.510Z,22.46
2023-07-01T15:19:56.121Z,22.39
2023-07-01T15:23:58.676Z,22.39
2023-07-01T15:28:02.648Z,22.20
2023-07-01T15:32:05.686Z,21.95
2023-07-01T15:36:08.184Z,22.21
2023-07-01T15:40:11.309Z,22.27
2023-07-01T15:44:15.321Z,22.45
2023-07-01T15:48:17.876Z,22.61
2023-07-01T15:52:20.406Z,22.54
2023-07-01T15:56:22.946Z,22.48
2023-07-01T16:00:27.107Z,22.33
2023-07-01T16:04:36.054Z,22.34
2023-07-01T16:08:38.630Z,22.32
2023-07-01T16:12:42.568Z,22.12
2023-07-01T16:16:46.500Z,22.12
2023-07-01T16:21:05.541Z,22.23
2023-07-01T16:25:09.178Z,22.03
2023-07-01T16:29:11.821Z,21.72
2023-07-01T16:33:17.931Z,21.76
2023-07-01T16:37:21.149Z,21.57
2023-07-01T16:41:27.174Z,21.55
2023-07-01T16:45:37.922Z,21.53
2023-07-01T16:49:41.777Z,21.77
2023-07-01T16:53:45.696Z,22.05
2023-07-01T16:57:48.669Z,22.16
2023-07-01T17:01:52.031Z,22.28
2023-07-01T17:05:56.095Z,22.18
2023-07-01T17:10:04.684Z,22.43
2023-07-01T17:14:07.403Z,22.26
2023-07-01T17:18:17.324Z,22.42
2023-07-01T17:22:23.736Z,22.53
2023-07-01T17:26:26.745Z,22.66
2023-07-01T17:30:29.412Z,22.94
2023-07-01T17:34:50.283Z,23.18
2023-07-01T17:38:54.158Z,23.88
2023-07-01T17:42:56.676Z,23.60
2023-07-01T17:46:59.209Z,23.59
2023-07-01T17:51:01.770Z,23.22
2023-07-01T17:55:09.473Z,22.77
2023-07-01T17:59:13.890Z,22.38
2023-07-01T18:03:16.650Z,22.25
2023-07-01T18:07:19.279Z,22.33
2023-07-01T18:11:23.179Z,22.14
2023-07-01T18:15:25.842Z,22.27
2023-07-01T18:19:28.447Z,22.26
2023-07-01T18:23:30.996Z,22.20
2023-07-01T18:27:35.857Z,22.13
2023-07-01T18:31:40.349Z,21.97
2023-07-01T18:35:43.062Z,21.90
2023-07-01T18:39:45.910Z,21.83
2023-07-01T18:43:49.895Z,21.89
2023-07-01T18:47:52.465Z,21.83
2023-07-01T18:51:55.129Z,21.77
2023-07-01T18:55:57.707Z,21.64
2023-07-01T19:00:01.659Z,21.60
2023-07-01T19:04:04.751Z,21.51
2023-07-01T19:08:07.311Z,21.49
2023-07-01T19:12:10.928Z,21.42
2023-07-01T19:16:14.894Z,21.44
2023-07-01T19:20:40.295Z,21.43
2023-07-01T19:24:42.813Z,21.37
2023-07-01T19:28:45.510Z,21.31
2023-07-01T19:32:49.409Z,21.28
2023-07-01T19:36:52.014Z,21.35
2023-07-01T19:40:54.804Z,21.28
2023-07-01T19:44:57.328Z,21.36
2023-07-01T19:49:02.084Z,21.22
2023-07-01T19:53:04.652Z,21.24
2023-07-01T19:57:07.286Z,21.16
2023-07-01T20:01:09.890Z,21.07
2023-07-01T20:05:13.928Z,21.02
2023-07-01T20:09:16.667Z,20.98
2023-07-01T20:13:19.220Z,21.00
2023-07-01T20:17:23.096Z,20.94
2023-07-01T20:21:27.020Z,20.84
2023-07-01T20:25:29.572Z,20.84
2023-07-01T20:29:32.128Z,20.85
2023-07-01T20:33:34.692Z,20.90
2023-07-01T20:37:38.821Z,20.89
2023-07-01T20:41:42.855Z,20.88
2023-07-01T20:45:48.669Z,20.86
2023-07-01T20:49:51.514Z,20.77
2023-07-01T20:53:55.440Z,20.64
2023-07-01T20:57:57.976Z,20.60
